sensor_id;sensor_type;location;lat;lon;timestamp;pressure;altitude;pressure_sealevel;temperature;humidity
76994;BME280;66749;47.406;18.822;2024-01-11T00:00:00;101870.19;;;-4.57;77.13
76994;BME280;66749;47.406;18.822;2024-01-11T00:00:31;101865.09;;;-4.57;76.96
76994;BME280;66749;47.406;18.822;2024-01-11T00:01:04;101866.75;;;-4.59;78.03
76994;BME280;66749;47.406;18.822;2024-01-11T00:01:35;101865.94;;;-4.58;77.28
76994;BME280;66749;47.406;18.822;2024-01-11T00:02:07;101865.03;;;-4.60;77.40
76994;BME280;66749;47.406;18.822;2024-01-11T00:02:39;101871.00;;;-4.59;77.89
76994;BME280;66749;47.406;18.822;2024-01-11T00:03:11;101873.56;;;-4.58;77.26
76994;BME280;66749;47.406;18.822;2024-01-11T00:03:43;101867.63;;;-4.58;77.24
76994;BME280;66749;47.406;18.822;2024-01-11T00:04:15;101871.03;;;-4.58;77.25
76994;BME280;66749;47.406;18.822;2024-01-11T00:04:47;101872.72;;;-4.58;77.79
76994;BME280;66749;47.406;18.822;2024-01-11T00:05:19;101865.03;;;-4.60;77.54
76994;BME280;66749;47.406;18.822;2024-01-11T00:05:51;101870.13;;;-4.60;78.22
76994;BME280;66749;47.406;18.822;2024-01-11T00:06:23;101863.31;;;-4.61;77.47
76994;BME280;66749;47.406;18.822;2024-01-11T00:06:55;101863.31;;;-4.61;77.52
76994;BME280;66749;47.406;18.822;2024-01-11T00:07:27;101865.91;;;-4.59;77.01
76994;BME280;66749;47.406;18.822;2024-01-11T00:07:59;101865.91;;;-4.59;78.00
76994;BME280;66749;47.406;18.822;2024-01-11T00:08:31;101875.22;;;-4.60;77.86
76994;BME280;66749;47.406;18.822;2024-01-11T00:09:02;101873.50;;;-4.61;76.97
76994;BME280;66749;47.406;18.822;2024-01-11T00:09:44;101868.34;;;-4.62;76.66
76994;BME280;66749;47.406;18.822;2024-01-11T00:10:16;101870.00;;;-4.63;77.69
76994;BME280;66749;47.406;18.822;2024-01-11T00:10:48;101876.75;;;-4.65;76.77
76994;BME280;66749;47.406;18.822;2024-01-11T00:11:19;101871.59;;;-4.68;77.39
76994;BME280;66749;47.406;18.822;2024-01-11T00:11:51;101871.59;;;-4.68;76.85
76994;BME280;66749;47.406;18.822;2024-01-11T00:12:23;101869.78;;;-4.70;76.68
76994;BME280;66749;47.406;18.822;2024-01-11T00:12:55;101868.97;;;-4.69;76.86
76994;BME280;66749;47.406;18.822;2024-01-11T00:13:27;101873.19;;;-4.70;76.46
76994;BME280;66749;47.406;18.822;2024-01-11T00:13:59;101871.44;;;-4.72;76.77
76994;BME280;66749;47.406;18.822;2024-01-11T00:14:31;101872.25;;;-4.73;77.14
76994;BME280;66749;47.406;18.822;2024-01-11T00:15:03;101874.75;;;-4.75;76.46
76994;BME280;66749;47.406;18.822;2024-01-11T00:15:35;101869.53;;;-4.80;77.43
76994;BME280;66749;47.406;18.822;2024-01-11T00:16:07;101873.78;;;-4.79;77.15
76994;BME280;66749;47.406;18.822;2024-01-11T00:16:39;101877.13;;;-4.81;77.18
76994;BME280;66749;47.406;18.822;2024-01-11T00:17:10;101875.44;;;-4.81;77.95
76994;BME280;66749;47.406;18.822;2024-01-11T00:17:42;101872.94;;;-4.79;77.81
76994;BME280;66749;47.406;18.822;2024-01-11T00:18:14;101878.00;;;-4.79;77.95
76994;BME280;66749;47.406;18.822;2024-01-11T00:18:46;101878.78;;;-4.82;77.68
76994;BME280;66749;47.406;18.822;2024-01-11T00:19:18;101880.47;;;-4.82;78.47
76994;BME280;66749;47.406;18.822;2024-01-11T00:19:51;101876.28;;;-4.80;78.52
76994;BME280;66749;47.406;18.822;2024-01-11T00:20:23;101879.69;;;-4.80;78.11
76994;BME280;66749;47.406;18.822;2024-01-11T00:20:55;101873.75;;;-4.80;77.97
76994;BME280;66749;47.406;18.822;2024-01-11T00:21:27;101878.00;;;-4.79;78.15
76994;BME280;66749;47.406;18.822;2024-01-11T00:21:59;101873.75;;;-4.80;78.65
76994;BME280;66749;47.406;18.822;2024-01-11T00:22:31;101874.56;;;-4.81;78.61
76994;BME280;66749;47.406;18.822;2024-01-11T00:23:03;101879.69;;;-4.80;78.35
76994;BME280;66749;47.406;18.822;2024-01-11T00:23:35;101874.59;;;-4.80;79.27
76994;BME280;66749;47.406;18.822;2024-01-11T00:24:07;101869.47;;;-4.81;79.05
76994;BME280;66749;47.406;18.822;2024-01-11T00:24:39;101870.38;;;-4.79;79.25
76994;BME280;66749;47.406;18.822;2024-01-11T00:25:11;101870.34;;;-4.81;78.30
76994;BME280;66749;47.406;18.822;2024-01-11T00:25:43;101876.28;;;-4.80;79.40
76994;BME280;66749;47.406;18.822;2024-01-11T00:26:15;101866.09;;;-4.80;78.74
76994;BME280;66749;47.406;18.822;2024-01-11T00:26:47;101867.84;;;-4.79;79.12
76994;BME280;66749;47.406;18.822;2024-01-11T00:27:19;101856.00;;;-4.77;78.36
76994;BME280;66749;47.406;18.822;2024-01-11T00:27:51;101859.50;;;-4.75;79.43
76994;BME280;66749;47.406;18.822;2024-01-11T00:28:23;101862.81;;;-4.76;78.99
76994;BME280;66749;47.406;18.822;2024-01-11T00:28:55;101856.94;;;-4.75;78.36
76994;BME280;66749;47.406;18.822;2024-01-11T00:29:27;101862.03;;;-4.75;79.31
76994;BME280;66749;47.406;18.822;2024-01-11T00:30:00;101864.56;;;-4.75;79.27
76994;BME280;66749;47.406;18.822;2024-01-11T00:30:31;101859.41;;;-4.77;78.16
76994;BME280;66749;47.406;18.822;2024-01-11T00:31:03;101856.00;;;-4.77;78.23
76994;BME280;66749;47.406;18.822;2024-01-11T00:31:36;101857.72;;;-4.76;78.96
76994;BME280;66749;47.406;18.822;2024-01-11T00:32:09;101858.63;;;-4.76;78.14
76994;BME280;66749;47.406;18.822;2024-01-11T00:32:41;101857.81;;;-4.75;78.90
76994;BME280;66749;47.406;18.822;2024-01-11T00:33:13;101856.94;;;-4.75;78.45
76994;BME280;66749;47.406;18.822;2024-01-11T00:33:45;101856.88;;;-4.77;78.55
76994;BME280;66749;47.406;18.822;2024-01-11T00:34:17;101862.81;;;-4.76;78.03
76994;BME280;66749;47.406;18.822;2024-01-11T00:34:49;101864.47;;;-4.78;78.38
76994;BME280;66749;47.406;18.822;2024-01-11T00:35:21;101857.66;;;-4.79;77.87
76994;BME280;66749;47.406;18.822;2024-01-11T00:35:52;101857.66;;;-4.79;77.66
76994;BME280;66749;47.406;18.822;2024-01-11T00:36:24;101858.47;;;-4.80;76.96
76994;BME280;66749;47.406;18.822;2024-01-11T00:36:56;101858.44;;;-4.82;77.00
76994;BME280;66749;47.406;18.822;2024-01-11T00:37:28;101855.84;;;-4.83;77.40
76994;BME280;66749;47.406;18.822;2024-01-11T00:38:00;101858.31;;;-4.85;77.57
76994;BME280;66749;47.406;18.822;2024-01-11T00:38:32;101861.69;;;-4.86;76.87
76994;BME280;66749;47.406;18.822;2024-01-11T00:39:04;101853.16;;;-4.88;76.58
76994;BME280;66749;47.406;18.822;2024-01-11T00:39:35;101852.28;;;-4.88;77.18
76994;BME280;66749;47.406;18.822;2024-01-11T00:40:08;101857.34;;;-4.90;77.32
76994;BME280;66749;47.406;18.822;2024-01-11T00:40:40;101853.00;;;-4.92;76.70
76994;BME280;66749;47.406;18.822;2024-01-11T00:41:12;101851.31;;;-4.92;77.71
76994;BME280;66749;47.406;18.822;2024-01-11T00:41:43;101854.72;;;-4.91;76.51
76994;BME280;66749;47.406;18.822;2024-01-11T00:42:15;101845.34;;;-4.92;77.48
76994;BME280;66749;47.406;18.822;2024-01-11T00:42:47;101850.44;;;-4.92;76.96
76994;BME280;66749;47.406;18.822;2024-01-11T00:43:19;101851.28;;;-4.93;77.40
76994;BME280;66749;47.406;18.822;2024-01-11T00:43:51;101849.56;;;-4.94;77.27
76994;BME280;66749;47.406;18.822;2024-01-11T00:44:23;101844.47;;;-4.94;77.42
76994;BME280;66749;47.406;18.822;2024-01-11T00:44:54;101846.19;;;-4.93;77.44
76994;BME280;66749;47.406;18.822;2024-01-11T00:45:26;101842.78;;;-4.94;77.42
76994;BME280;66749;47.406;18.822;2024-01-11T00:45:58;101841.09;;;-4.93;77.23
76994;BME280;66749;47.406;18.822;2024-01-11T00:46:30;101837.69;;;-4.94;76.81
76994;BME280;66749;47.406;18.822;2024-01-11T00:47:02;101842.06;;;-4.90;76.49
76994;BME280;66749;47.406;18.822;2024-01-11T00:47:34;101842.88;;;-4.91;76.63
76994;BME280;66749;47.406;18.822;2024-01-11T00:48:06;101840.28;;;-4.92;76.88
76994;BME280;66749;47.406;18.822;2024-01-11T00:48:38;101845.34;;;-4.92;77.40
76994;BME280;66749;47.406;18.822;2024-01-11T00:49:10;101834.25;;;-4.96;77.01
76994;BME280;66749;47.406;18.822;2024-01-11T00:49:42;101842.78;;;-4.94;76.57
76994;BME280;66749;47.406;18.822;2024-01-11T00:50:14;101844.47;;;-4.94;76.54
76994;BME280;66749;47.406;18.822;2024-01-11T00:50:46;101853.00;;;-4.92;77.33
76994;BME280;66749;47.406;18.822;2024-01-11T00:51:18;101845.34;;;-4.92;76.59
76994;BME280;66749;47.406;18.822;2024-01-11T00:51:50;101847.03;;;-4.93;76.98
76994;BME280;66749;47.406;18.822;2024-01-11T00:52:22;101848.72;;;-4.93;76.94
76994;BME280;66749;47.406;18.822;2024-01-11T00:52:54;101852.97;;;-4.94;77.42
76994;BME280;66749;47.406;18.822;2024-01-11T00:53:26;101849.50;;;-4.96;77.48
76994;BME280;66749;47.406;18.822;2024-01-11T00:54:02;101840.13;;;-4.98;77.16
76994;BME280;66749;47.406;18.822;2024-01-11T00:54:34;101845.25;;;-4.97;76.54
76994;BME280;66749;47.406;18.822;2024-01-11T00:55:06;101837.56;;;-4.98;76.93
76994;BME280;66749;47.406;18.822;2024-01-11T00:55:38;101841.75;;;-4.99;77.22
76994;BME280;66749;47.406;18.822;2024-01-11T00:56:19;101838.47;;;-4.96;77.68
76994;BME280;66749;47.406;18.822;2024-01-11T00:56:51;101835.97;;;-4.95;77.81
76994;BME280;66749;47.406;18.822;2024-01-11T00:57:23;101837.66;;;-4.95;77.15
76994;BME280;66749;47.406;18.822;2024-01-11T00:57:55;101839.38;;;-4.94;76.58
76994;BME280;66749;47.406;18.822;2024-01-11T00:58:26;101830.88;;;-4.95;76.74
76994;BME280;66749;47.406;18.822;2024-01-11T00:58:58;101836.81;;;-4.94;77.12
76994;BME280;66749;47.406;18.822;2024-01-11T00:59:30;101839.31;;;-4.96;76.66
76994;BME280;66749;47.406;18.822;2024-01-11T01:00:02;101835.91;;;-4.96;76.63
76994;BME280;66749;47.406;18.822;2024-01-11T01:00:34;101833.38;;;-4.96;76.70
76994;BME280;66749;47.406;18.822;2024-01-11T01:01:09;101837.56;;;-4.98;77.42
76994;BME280;66749;47.406;18.822;2024-01-11T01:01:47;101832.41;;;-5.00;77.31
76994;BME280;66749;47.406;18.822;2024-01-11T01:02:20;101837.50;;;-5.00;76.57
76994;BME280;66749;47.406;18.822;2024-01-11T01:02:51;101834.13;;;-4.99;77.04
76994;BME280;66749;47.406;18.822;2024-01-11T01:03:23;101827.22;;;-5.03;76.66
76994;BME280;66749;47.406;18.822;2024-01-11T01:03:55;101829.63;;;-5.08;77.51
76994;BME280;66749;47.406;18.822;2024-01-11T01:04:27;101826.25;;;-5.07;77.66
76994;BME280;66749;47.406;18.822;2024-01-11T01:04:59;101832.16;;;-5.08;77.83
76994;BME280;66749;47.406;18.822;2024-01-11T01:05:31;101826.19;;;-5.10;78.44
76994;BME280;66749;47.406;18.822;2024-01-11T01:06:03;101827.09;;;-5.08;78.16
76994;BME280;66749;47.406;18.822;2024-01-11T01:06:35;101829.63;;;-5.08;77.56
76994;BME280;66749;47.406;18.822;2024-01-11T01:07:07;101826.19;;;-5.10;78.17
76994;BME280;66749;47.406;18.822;2024-01-11T01:07:39;101826.25;;;-5.07;78.36
76994;BME280;66749;47.406;18.822;2024-01-11T01:08:11;101829.75;;;-5.05;77.75
76994;BME280;66749;47.406;18.822;2024-01-11T01:08:43;101833.09;;;-5.06;78.84
76994;BME280;66749;47.406;18.822;2024-01-11T01:09:15;101825.50;;;-5.04;78.77
76994;BME280;66749;47.406;18.822;2024-01-11T01:09:47;101826.38;;;-5.04;77.99
76994;BME280;66749;47.406;18.822;2024-01-11T01:10:18;101834.00;;;-5.04;78.86
76994;BME280;66749;47.406;18.822;2024-01-11T01:10:50;101828.97;;;-5.02;78.18
76994;BME280;66749;47.406;18.822;2024-01-11T01:11:22;101828.06;;;-5.04;78.53
76994;BME280;66749;47.406;18.822;2024-01-11T01:11:54;101827.19;;;-5.05;78.07
76994;BME280;66749;47.406;18.822;2024-01-11T01:12:26;101817.06;;;-5.03;77.97
76994;BME280;66749;47.406;18.822;2024-01-11T01:12:58;101815.38;;;-5.03;78.21
76994;BME280;66749;47.406;18.822;2024-01-11T01:13:30;101822.16;;;-5.03;78.36
76994;BME280;66749;47.406;18.822;2024-01-11T01:14:01;101811.97;;;-5.03;78.82
76994;BME280;66749;47.406;18.822;2024-01-11T01:14:33;101816.19;;;-5.04;78.85
76994;BME280;66749;47.406;18.822;2024-01-11T01:15:06;101819.59;;;-5.03;77.66
76994;BME280;66749;47.406;18.822;2024-01-11T01:15:38;101813.69;;;-5.02;78.64
76994;BME280;66749;47.406;18.822;2024-01-11T01:16:09;101816.22;;;-5.02;77.73
76994;BME280;66749;47.406;18.822;2024-01-11T01:16:41;101806.00;;;-5.04;77.40
76994;BME280;66749;47.406;18.822;2024-01-11T01:17:13;101811.09;;;-5.04;78.05
76994;BME280;66749;47.406;18.822;2024-01-11T01:17:47;101794.13;;;-5.05;77.57
76994;BME280;66749;47.406;18.822;2024-01-11T01:18:20;101809.38;;;-5.05;78.26
76994;BME280;66749;47.406;18.822;2024-01-11T01:18:51;101812.75;;;-5.06;77.64
76994;BME280;66749;47.406;18.822;2024-01-11T01:19:23;101811.94;;;-5.05;77.81
76994;BME280;66749;47.406;18.822;2024-01-11T01:19:55;101805.97;;;-5.05;78.04
76994;BME280;66749;47.406;18.822;2024-01-11T01:20:27;101807.66;;;-5.06;78.17
76994;BME280;66749;47.406;18.822;2024-01-11T01:20:59;101809.22;;;-5.09;77.83
76994;BME280;66749;47.406;18.822;2024-01-11T01:21:31;101808.38;;;-5.10;78.02
76994;BME280;66749;47.406;18.822;2024-01-11T01:22:03;101807.50;;;-5.10;77.10
76994;BME280;66749;47.406;18.822;2024-01-11T01:22:35;101809.19;;;-5.11;77.65
76994;BME280;66749;47.406;18.822;2024-01-11T01:23:07;101810.84;;;-5.13;77.65
76994;BME280;66749;47.406;18.822;2024-01-11T01:23:39;101806.56;;;-5.14;77.17
76994;BME280;66749;47.406;18.822;2024-01-11T01:24:10;101814.19;;;-5.14;78.18
76994;BME280;66749;47.406;18.822;2024-01-11T01:24:42;101813.22;;;-5.17;78.12
76994;BME280;66749;47.406;18.822;2024-01-11T01:25:14;101804.72;;;-5.18;78.21
76994;BME280;66749;47.406;18.822;2024-01-11T01:25:46;101806.38;;;-5.20;77.15
76994;BME280;66749;47.406;18.822;2024-01-11T01:26:18;101808.91;;;-5.20;77.09
76994;BME280;66749;47.406;18.822;2024-01-11T01:26:50;101807.19;;;-5.21;77.85
76994;BME280;66749;47.406;18.822;2024-01-11T01:27:22;101804.69;;;-5.19;77.76
76994;BME280;66749;47.406;18.822;2024-01-11T01:27:54;101802.16;;;-5.19;77.24
76994;BME280;66749;47.406;18.822;2024-01-11T01:28:26;101803.88;;;-5.18;77.90
76994;BME280;66749;47.406;18.822;2024-01-11T01:28:58;101803.00;;;-5.19;76.79
76994;BME280;66749;47.406;18.822;2024-01-11T01:29:30;101800.50;;;-5.17;77.21
76994;BME280;66749;47.406;18.822;2024-01-11T01:30:03;101803.91;;;-5.17;77.07
76994;BME280;66749;47.406;18.822;2024-01-11T01:30:35;101798.84;;;-5.15;77.35
76994;BME280;66749;47.406;18.822;2024-01-11T01:31:07;101796.22;;;-5.18;77.45
76994;BME280;66749;47.406;18.822;2024-01-11T01:31:38;101797.91;;;-5.19;77.85
76994;BME280;66749;47.406;18.822;2024-01-11T01:32:10;101796.19;;;-5.20;78.13
76994;BME280;66749;47.406;18.822;2024-01-11T01:32:42;101796.28;;;-5.17;77.10
76994;BME280;66749;47.406;18.822;2024-01-11T01:33:15;101797.09;;;-5.18;77.46
76994;BME280;66749;47.406;18.822;2024-01-11T01:33:47;101795.38;;;-5.19;77.75
76994;BME280;66749;47.406;18.822;2024-01-11T01:34:19;101801.28;;;-5.20;77.62
76994;BME280;66749;47.406;18.822;2024-01-11T01:34:51;101792.78;;;-5.20;77.97
76994;BME280;66749;47.406;18.822;2024-01-11T01:35:23;101795.38;;;-5.19;77.65
76994;BME280;66749;47.406;18.822;2024-01-11T01:35:55;101793.66;;;-5.20;77.86
76994;BME280;66749;47.406;18.822;2024-01-11T01:36:26;101791.09;;;-5.20;78.42
76994;BME280;66749;47.406;18.822;2024-01-11T01:36:58;101792.78;;;-5.20;78.10
76994;BME280;66749;47.406;18.822;2024-01-11T01:37:30;101793.69;;;-5.18;78.03
76994;BME280;66749;47.406;18.822;2024-01-11T01:38:02;101788.59;;;-5.18;77.91
76994;BME280;66749;47.406;18.822;2024-01-11T01:38:34;101791.09;;;-5.20;77.66
76994;BME280;66749;47.406;18.822;2024-01-11T01:39:06;101783.47;;;-5.20;77.66
76994;BME280;66749;47.406;18.822;2024-01-11T01:39:39;101791.00;;;-5.23;77.54
76994;BME280;66749;47.406;18.822;2024-01-11T01:40:11;101790.16;;;-5.22;78.22
76994;BME280;66749;47.406;18.822;2024-01-11T01:40:43;101783.34;;;-5.23;77.60
76994;BME280;66749;47.406;18.822;2024-01-11T01:41:15;101783.28;;;-5.26;78.41
76994;BME280;66749;47.406;18.822;2024-01-11T01:41:47;101784.19;;;-5.24;78.82
76994;BME280;66749;47.406;18.822;2024-01-11T01:42:20;101787.50;;;-5.26;78.83
76994;BME280;66749;47.406;18.822;2024-01-11T01:42:58;101785.72;;;-5.29;77.99
76994;BME280;66749;47.406;18.822;2024-01-11T01:43:32;101782.25;;;-5.31;78.98
76994;BME280;66749;47.406;18.822;2024-01-11T01:44:04;101787.34;;;-5.31;77.97
76994;BME280;66749;47.406;18.822;2024-01-11T01:44:36;101781.41;;;-5.32;78.62
76994;BME280;66749;47.406;18.822;2024-01-11T01:45:08;101778.06;;;-5.29;78.17
76994;BME280;66749;47.406;18.822;2024-01-11T01:45:40;101781.50;;;-5.28;78.95
76994;BME280;66749;47.406;18.822;2024-01-11T01:46:20;101779.72;;;-5.31;78.31
76994;BME280;66749;47.406;18.822;2024-01-11T01:46:53;101774.63;;;-5.31;79.06
76994;BME280;66749;47.406;18.822;2024-01-11T01:47:26;101774.56;;;-5.34;78.25
76994;BME280;66749;47.406;18.822;2024-01-11T01:47:58;101770.16;;;-5.38;78.93
76994;BME280;66749;47.406;18.822;2024-01-11T01:48:30;101774.56;;;-5.34;78.15
76994;BME280;66749;47.406;18.822;2024-01-11T01:49:03;101769.50;;;-5.33;78.47
76994;BME280;66749;47.406;18.822;2024-01-11T01:49:36;101783.09;;;-5.32;78.97
76994;BME280;66749;47.406;18.822;2024-01-11T01:50:10;101777.97;;;-5.34;78.23
76994;BME280;66749;47.406;18.822;2024-01-11T01:50:42;101772.84;;;-5.35;78.39
76994;BME280;66749;47.406;18.822;2024-01-11T01:51:17;101770.28;;;-5.35;79.34
76994;BME280;66749;47.406;18.822;2024-01-11T01:51:51;101773.72;;;-5.33;79.36
76994;BME280;66749;47.406;18.822;2024-01-11T01:52:24;101770.41;;;-5.31;79.37
76994;BME280;66749;47.406;18.822;2024-01-11T01:52:57;101772.13;;;-5.30;78.28
76994;BME280;66749;47.406;18.822;2024-01-11T01:53:30;101773.00;;;-5.29;78.32
76994;BME280;66749;47.406;18.822;2024-01-11T01:54:02;101772.13;;;-5.30;78.94
76994;BME280;66749;47.406;18.822;2024-01-11T01:54:35;101780.53;;;-5.32;78.83
76994;BME280;66749;47.406;18.822;2024-01-11T01:55:09;101773.66;;;-5.36;79.02
76994;BME280;66749;47.406;18.822;2024-01-11T01:55:41;101771.84;;;-5.39;78.68
76994;BME280;66749;47.406;18.822;2024-01-11T01:56:13;101772.72;;;-5.38;79.41
76994;BME280;66749;47.406;18.822;2024-01-11T01:56:45;101774.44;;;-5.37;79.06
76994;BME280;66749;47.406;18.822;2024-01-11T01:57:18;101771.00;;;-5.39;79.60
76994;BME280;66749;47.406;18.822;2024-01-11T01:57:51;101769.28;;;-5.40;79.00
76994;BME280;66749;47.406;18.822;2024-01-11T01:58:24;101763.31;;;-5.41;79.05
76994;BME280;66749;47.406;18.822;2024-01-11T01:58:56;101765.88;;;-5.41;78.66
76994;BME280;66749;47.406;18.822;2024-01-11T01:59:29;101761.63;;;-5.40;78.75
76994;BME280;66749;47.406;18.822;2024-01-11T02:00:02;101759.09;;;-5.40;79.22
76994;BME280;66749;47.406;18.822;2024-01-11T02:00:35;101761.63;;;-5.40;79.52
76994;BME280;66749;47.406;18.822;2024-01-11T02:01:08;101763.41;;;-5.38;79.76
76994;BME280;66749;47.406;18.822;2024-01-11T02:01:42;101760.94;;;-5.36;79.84
76994;BME280;66749;47.406;18.822;2024-01-11T02:02:15;101766.91;;;-5.34;79.93
76994;BME280;66749;47.406;18.822;2024-01-11T02:02:50;101762.66;;;-5.35;79.99
76994;BME280;66749;47.406;18.822;2024-01-11T02:03:27;101759.38;;;-5.31;79.41
76994;BME280;66749;47.406;18.822;2024-01-11T02:04:00;101756.75;;;-5.34;79.64
76994;BME280;66749;47.406;18.822;2024-01-11T02:04:32;101756.75;;;-5.34;79.62
76994;BME280;66749;47.406;18.822;2024-01-11T02:05:05;101763.59;;;-5.32;79.93
76994;BME280;66749;47.406;18.822;2024-01-11T02:05:37;101758.50;;;-5.32;78.89
76994;BME280;66749;47.406;18.822;2024-01-11T02:06:10;101762.66;;;-5.35;79.17
76994;BME280;66749;47.406;18.822;2024-01-11T02:06:44;101757.44;;;-5.38;79.03
76994;BME280;66749;47.406;18.822;2024-01-11T02:07:18;101760.94;;;-5.36;79.37
76994;BME280;66749;47.406;18.822;2024-01-11T02:07:50;101754.19;;;-5.34;79.75
76994;BME280;66749;47.406;18.822;2024-01-11T02:08:24;101756.75;;;-5.34;79.59
76994;BME280;66749;47.406;18.822;2024-01-11T02:08:58;101757.44;;;-5.38;79.35
76994;BME280;66749;47.406;18.822;2024-01-11T02:09:30;101762.53;;;-5.38;79.38
76994;BME280;66749;47.406;18.822;2024-01-11T02:10:02;101756.56;;;-5.40;79.65
76994;BME280;66749;47.406;18.822;2024-01-11T02:10:35;101755.72;;;-5.39;79.41
76994;BME280;66749;47.406;18.822;2024-01-11T02:11:11;101758.28;;;-5.39;78.65
76994;BME280;66749;47.406;18.822;2024-01-11T02:11:44;101755.66;;;-5.42;78.67
76994;BME280;66749;47.406;18.822;2024-01-11T02:12:16;101757.38;;;-5.41;78.53
76994;BME280;66749;47.406;18.822;2024-01-11T02:12:48;101756.47;;;-5.43;78.91
76994;BME280;66749;47.406;18.822;2024-01-11T02:13:21;101756.47;;;-5.43;78.95
76994;BME280;66749;47.406;18.822;2024-01-11T02:13:53;101754.72;;;-5.44;78.63
76994;BME280;66749;47.406;18.822;2024-01-11T02:14:26;101746.22;;;-5.45;79.12
76994;BME280;66749;47.406;18.822;2024-01-11T02:14:58;101754.81;;;-5.41;79.13
76994;BME280;66749;47.406;18.822;2024-01-11T02:15:30;101750.66;;;-5.39;79.00
76994;BME280;66749;47.406;18.822;2024-01-11T02:16:02;101747.19;;;-5.41;78.47
76994;BME280;66749;47.406;18.822;2024-01-11T02:16:34;101755.72;;;-5.39;79.09
76994;BME280;66749;47.406;18.822;2024-01-11T02:17:06;101750.66;;;-5.39;78.48
76994;BME280;66749;47.406;18.822;2024-01-11T02:17:40;101749.00;;;-5.37;78.28
76994;BME280;66749;47.406;18.822;2024-01-11T02:18:13;101742.31;;;-5.35;79.28
76994;BME280;66749;47.406;18.822;2024-01-11T02:18:45;101746.53;;;-5.36;78.87
76994;BME280;66749;47.406;18.822;2024-01-11T02:19:19;101748.28;;;-5.33;78.15
76994;BME280;66749;47.406;18.822;2024-01-11T02:19:51;101749.97;;;-5.34;nan
76994;BME280;66749;47.406;18.822;2024-01-11T02:20:23;101748.34;;;-5.32;78.44
76994;BME280;66749;47.406;18.822;2024-01-11T02:20:56;101750.91;;;-5.30;78.05
76994;BME280;66749;47.406;18.822;2024-01-11T02:21:29;101743.28;;;-5.30;78.80
76994;BME280;66749;47.406;18.822;2024-01-11T02:22:22;101745.00;;;-5.29;78.38
76994;BME280;66749;47.406;18.822;2024-01-11T02:23:01;101750.16;;;-5.27;77.96
76994;BME280;66749;47.406;18.822;2024-01-11T02:23:43;101742.56;;;-5.26;78.45
76994;BME280;66749;47.406;18.822;2024-01-11T02:24:17;101751.94;;;-5.25;77.61
76994;BME280;66749;47.406;18.822;2024-01-11T02:24:49;101746.81;;;-5.26;77.19
76994;BME280;66749;47.406;18.822;2024-01-11T02:25:21;101746.84;;;-5.25;77.99
76994;BME280;66749;47.406;18.822;2024-01-11T02:25:53;101744.31;;;-5.25;76.96
76994;BME280;66749;47.406;18.822;2024-01-11T02:26:24;101732.38;;;-5.27;77.13
76994;BME280;66749;47.406;18.822;2024-01-11T02:27:04;101737.50;;;-5.26;77.12
76994;BME280;66749;47.406;18.822;2024-01-11T02:27:47;101738.31;;;-5.27;77.16
76994;BME280;66749;47.406;18.822;2024-01-11T02:28:19;101735.00;;;-5.24;77.48
76994;BME280;66749;47.406;18.822;2024-01-11T02:28:51;101740.03;;;-5.26;77.55
76994;BME280;66749;47.406;18.822;2024-01-11T02:29:22;101730.69;;;-5.27;77.47
76994;BME280;66749;47.406;18.822;2024-01-11T02:29:54;101729.84;;;-5.26;76.82
76994;BME280;66749;47.406;18.822;2024-01-11T02:30:26;101723.88;;;-5.28;77.37
76994;BME280;66749;47.406;18.822;2024-01-11T02:30:58;101723.94;;;-5.25;77.83
76994;BME280;66749;47.406;18.822;2024-01-11T02:31:30;101734.13;;;-5.25;76.75
76994;BME280;66749;47.406;18.822;2024-01-11T02:32:02;101730.75;;;-5.24;77.08
76994;BME280;66749;47.406;18.822;2024-01-11T02:32:35;101729.91;;;-5.24;77.40
76994;BME280;66749;47.406;18.822;2024-01-11T02:33:07;101731.59;;;-5.25;77.19
76994;BME280;66749;47.406;18.822;2024-01-11T02:33:39;101731.53;;;-5.26;76.69
76994;BME280;66749;47.406;18.822;2024-01-11T02:34:11;101727.16;;;-5.31;76.79
76994;BME280;66749;47.406;18.822;2024-01-11T02:34:44;101738.16;;;-5.32;76.25
76994;BME280;66749;47.406;18.822;2024-01-11T02:35:16;101734.75;;;-5.32;77.29
76994;BME280;66749;47.406;18.822;2024-01-11T02:35:50;101731.31;;;-5.34;76.33
76994;BME280;66749;47.406;18.822;2024-01-11T02:36:23;101732.94;;;-5.36;76.48
76994;BME280;66749;47.406;18.822;2024-01-11T02:36:56;101732.03;;;-5.38;77.16
76994;BME280;66749;47.406;18.822;2024-01-11T02:37:28;101730.25;;;-5.41;76.99
76994;BME280;66749;47.406;18.822;2024-01-11T02:38:00;101734.50;;;-5.41;77.26
76994;BME280;66749;47.406;18.822;2024-01-11T02:38:34;101730.22;;;-5.42;77.15
76994;BME280;66749;47.406;18.822;2024-01-11T02:39:07;101736.13;;;-5.43;77.14
76994;BME280;66749;47.406;18.822;2024-01-11T02:39:39;101730.97;;;-5.45;77.13
76994;BME280;66749;47.406;18.822;2024-01-11T02:40:13;101734.34;;;-5.46;75.97
76994;BME280;66749;47.406;18.822;2024-01-11T02:40:45;101728.41;;;-5.45;76.24
76994;BME280;66749;47.406;18.822;2024-01-11T02:41:18;101726.66;;;-5.47;76.81
76994;BME280;66749;47.406;18.822;2024-01-11T02:41:52;101730.09;;;-5.45;77.03
76994;BME280;66749;47.406;18.822;2024-01-11T02:42:24;101725.88;;;-5.45;76.55
76994;BME280;66749;47.406;18.822;2024-01-11T02:42:56;101725.03;;;-5.45;76.80
76994;BME280;66749;47.406;18.822;2024-01-11T02:43:28;101726.66;;;-5.47;76.64
76994;BME280;66749;47.406;18.822;2024-01-11T02:44:00;101725.81;;;-5.48;76.52
76994;BME280;66749;47.406;18.822;2024-01-11T02:44:33;101725.75;;;-5.49;76.56
76994;BME280;66749;47.406;18.822;2024-01-11T02:45:05;101726.66;;;-5.47;76.41
76994;BME280;66749;47.406;18.822;2024-01-11T02:45:37;101722.34;;;-5.50;76.32
76994;BME280;66749;47.406;18.822;2024-01-11T02:46:09;101718.94;;;-5.50;77.44
76994;BME280;66749;47.406;18.822;2024-01-11T02:46:41;101718.16;;;-5.48;77.24
76994;BME280;66749;47.406;18.822;2024-01-11T02:47:13;101718.16;;;-5.48;77.46
76994;BME280;66749;47.406;18.822;2024-01-11T02:47:45;101719.84;;;-5.48;76.41